Terminal Aerodrome Forecast
Issued by NWS

Home | Current Version | Previous Version | Text Only | Print | Product List | Glossary On
Versions: 1 2 3 4 5 6 7 8 9 10 11 12 13 14 15 16 17 18 19 20 21 22 23 24 25 26 27 28 29 30 31 32 33 34 35 36 37 38 39 40 41 42 43 44 45 46 47 48 49 50
000
FTUS45 KBOU 300600 AAA
TAFAPA
TAF AMD
KAPA 300600Z 3006/0106 10005KT P6SM FEW040 SCT060 BKN120
     FM300700 14007KT P6SM SCT070 BKN120
     FM301000 VRB05KT P6SM SCT080 SCT140
     FM301700 24007KT P6SM FEW140 SCT200
     FM302200 28008KT P6SM SCT090 BKN140
     FM010100 34007KT P6SM SCT070 BKN090
     FM010500 18006KT P6SM SCT090 BKN130=

USA.gov is the U.S. government's official web portal to all federal, state and local government web resources and services.